Central Valley, New York
Current Conditions -  °F | °C
As of 10:45 AM on Thursday 18 Dec 2014 (Local Time) from KSWF Reporting Station
Broken Clouds Broken Clouds  
Wind Chill: 24°   Ceiling: 3800
Heat Index: 36°   Visibility: 20mi
Dew Point: 25°   Wind: 23mph
Humidity: 65%   Direction: 300°WNW
Pressure: 29.94"   Gusts: 35mph
Location:  41.33°N, 74.13°W
Report Text: KSWF 181545Z 30020G30KT 20SM BKN038 02/M04 A2994
Loading
Personal Weather Stations






























Interactive Weather Map New forecast layout! Learn more

10-Day Weather Forecast

Advertisements
Track Severe Weather on mobile